sensor_id;sensor_type;location;lat;lon;timestamp;P1;durP1;ratioP1;P2;durP2;ratioP2
52854;SDS011;38719;51.418;7.286;2022-08-14T00:01:00;6.43;;;5.38;;
52854;SDS011;38719;51.418;7.286;2022-08-14T00:03:36;6.20;;;5.60;;
52854;SDS011;38719;51.418;7.286;2022-08-14T00:06:06;7.10;;;5.70;;
52854;SDS011;38719;51.418;7.286;2022-08-14T00:08:51;6.03;;;5.43;;
52854;SDS011;38719;51.418;7.286;2022-08-14T00:11:19;6.53;;;5.40;;
52854;SDS011;38719;51.418;7.286;2022-08-14T00:13:47;6.50;;;5.53;;
52854;SDS011;38719;51.418;7.286;2022-08-14T00:16:18;9.07;;;5.80;;
52854;SDS011;38719;51.418;7.286;2022-08-14T00:19:05;6.43;;;5.80;;
52854;SDS011;38719;51.418;7.286;2022-08-14T00:21:46;6.75;;;5.75;;
52854;SDS011;38719;51.418;7.286;2022-08-14T00:24:16;8.82;;;5.38;;
52854;SDS011;38719;51.418;7.286;2022-08-14T00:26:54;8.45;;;5.47;;
52854;SDS011;38719;51.418;7.286;2022-08-14T00:29:23;6.72;;;5.93;;
52854;SDS011;38719;51.418;7.286;2022-08-14T00:31:52;7.50;;;5.90;;
52854;SDS011;38719;51.418;7.286;2022-08-14T00:34:21;9.13;;;7.00;;
52854;SDS011;38719;51.418;7.286;2022-08-14T00:37:10;9.80;;;6.47;;
52854;SDS011;38719;51.418;7.286;2022-08-14T00:39:38;8.60;;;6.20;;
52854;SDS011;38719;51.418;7.286;2022-08-14T00:42:07;8.65;;;6.18;;
52854;SDS011;38719;51.418;7.286;2022-08-14T00:44:56;9.50;;;6.13;;
52854;SDS011;38719;51.418;7.286;2022-08-14T00:47:25;10.98;;;6.07;;
52854;SDS011;38719;51.418;7.286;2022-08-14T00:49:54;6.47;;;5.88;;
52854;SDS011;38719;51.418;7.286;2022-08-14T00:52:22;6.53;;;5.90;;
52854;SDS011;38719;51.418;7.286;2022-08-14T00:54:52;12.68;;;6.47;;
52854;SDS011;38719;51.418;7.286;2022-08-14T00:57:24;9.35;;;6.25;;
52854;SDS011;38719;51.418;7.286;2022-08-14T00:59:53;6.95;;;6.05;;
52854;SDS011;38719;51.418;7.286;2022-08-14T01:02:23;12.70;;;6.72;;
52854;SDS011;38719;51.418;7.286;2022-08-14T01:05:02;8.18;;;6.35;;
52854;SDS011;38719;51.418;7.286;2022-08-14T01:07:33;11.75;;;6.85;;
52854;SDS011;38719;51.418;7.286;2022-08-14T01:10:12;10.23;;;6.10;;
52854;SDS011;38719;51.418;7.286;2022-08-14T01:12:41;10.13;;;6.82;;
52854;SDS011;38719;51.418;7.286;2022-08-14T01:15:13;10.38;;;6.82;;
52854;SDS011;38719;51.418;7.286;2022-08-14T01:17:43;8.32;;;6.72;;
52854;SDS011;38719;51.418;7.286;2022-08-14T01:20:29;14.38;;;7.05;;
52854;SDS011;38719;51.418;7.286;2022-08-14T01:23:17;9.80;;;7.15;;
52854;SDS011;38719;51.418;7.286;2022-08-14T01:25:47;9.82;;;7.40;;
52854;SDS011;38719;51.418;7.286;2022-08-14T01:28:18;10.35;;;7.28;;
52854;SDS011;38719;51.418;7.286;2022-08-14T01:31:07;11.02;;;7.30;;
52854;SDS011;38719;51.418;7.286;2022-08-14T01:33:37;12.85;;;7.20;;
52854;SDS011;38719;51.418;7.286;2022-08-14T01:36:26;8.57;;;7.13;;
52854;SDS011;38719;51.418;7.286;2022-08-14T01:39:03;9.45;;;7.25;;
52854;SDS011;38719;51.418;7.286;2022-08-14T01:41:38;10.82;;;6.90;;
52854;SDS011;38719;51.418;7.286;2022-08-14T01:44:09;11.60;;;7.40;;
52854;SDS011;38719;51.418;7.286;2022-08-14T01:47:00;9.98;;;7.45;;
52854;SDS011;38719;51.418;7.286;2022-08-14T01:49:47;12.07;;;7.18;;
52854;SDS011;38719;51.418;7.286;2022-08-14T01:52:25;21.83;;;7.85;;
52854;SDS011;38719;51.418;7.286;2022-08-14T01:55:14;9.73;;;7.10;;
52854;SDS011;38719;51.418;7.286;2022-08-14T01:57:43;8.63;;;6.93;;
52854;SDS011;38719;51.418;7.286;2022-08-14T02:00:27;10.48;;;7.68;;
52854;SDS011;38719;51.418;7.286;2022-08-14T02:03:01;8.75;;;7.10;;
52854;SDS011;38719;51.418;7.286;2022-08-14T02:05:32;8.40;;;7.25;;
52854;SDS011;38719;51.418;7.286;2022-08-14T02:08:03;8.20;;;7.03;;
52854;SDS011;38719;51.418;7.286;2022-08-14T02:10:36;7.80;;;7.00;;
52854;SDS011;38719;51.418;7.286;2022-08-14T02:13:12;7.80;;;7.00;;
52854;SDS011;38719;51.418;7.286;2022-08-14T02:15:42;10.55;;;7.38;;
52854;SDS011;38719;51.418;7.286;2022-08-14T02:18:13;8.15;;;6.90;;
52854;SDS011;38719;51.418;7.286;2022-08-14T02:20:43;8.30;;;7.10;;
52854;SDS011;38719;51.418;7.286;2022-08-14T02:23:12;8.52;;;7.72;;
52854;SDS011;38719;51.418;7.286;2022-08-14T02:25:41;8.00;;;6.97;;
52854;SDS011;38719;51.418;7.286;2022-08-14T02:28:20;8.32;;;6.97;;
52854;SDS011;38719;51.418;7.286;2022-08-14T02:31:08;9.25;;;7.32;;
52854;SDS011;38719;51.418;7.286;2022-08-14T02:33:40;8.23;;;6.90;;
52854;SDS011;38719;51.418;7.286;2022-08-14T02:36:08;8.88;;;7.32;;
52854;SDS011;38719;51.418;7.286;2022-08-14T02:38:57;13.77;;;7.82;;
52854;SDS011;38719;51.418;7.286;2022-08-14T02:41:26;12.63;;;7.70;;
52854;SDS011;38719;51.418;7.286;2022-08-14T02:44:02;10.93;;;7.50;;
52854;SDS011;38719;51.418;7.286;2022-08-14T02:46:32;10.48;;;8.25;;
52854;SDS011;38719;51.418;7.286;2022-08-14T02:49:06;9.70;;;7.78;;
52854;SDS011;38719;51.418;7.286;2022-08-14T02:51:35;9.70;;;7.20;;
52854;SDS011;38719;51.418;7.286;2022-08-14T02:54:05;10.10;;;8.00;;
52854;SDS011;38719;51.418;7.286;2022-08-14T02:56:36;14.10;;;8.52;;
52854;SDS011;38719;51.418;7.286;2022-08-14T02:59:24;10.63;;;8.13;;
52854;SDS011;38719;51.418;7.286;2022-08-14T03:04:28;9.88;;;6.95;;
52854;SDS011;38719;51.418;7.286;2022-08-14T03:06:56;11.20;;;7.78;;
52854;SDS011;38719;51.418;7.286;2022-08-14T03:09:33;10.82;;;7.68;;
52854;SDS011;38719;51.418;7.286;2022-08-14T03:12:23;9.55;;;7.93;;
52854;SDS011;38719;51.418;7.286;2022-08-14T03:14:57;10.50;;;8.07;;
52854;SDS011;38719;51.418;7.286;2022-08-14T03:17:25;15.18;;;8.32;;
52854;SDS011;38719;51.418;7.286;2022-08-14T03:19:57;12.63;;;8.07;;
52854;SDS011;38719;51.418;7.286;2022-08-14T03:22:24;10.20;;;8.32;;
52854;SDS011;38719;51.418;7.286;2022-08-14T03:24:55;10.93;;;8.48;;
52854;SDS011;38719;51.418;7.286;2022-08-14T03:27:24;9.18;;;8.18;;
52854;SDS011;38719;51.418;7.286;2022-08-14T03:30:13;11.73;;;8.45;;
52854;SDS011;38719;51.418;7.286;2022-08-14T03:32:48;11.90;;;8.68;;
52854;SDS011;38719;51.418;7.286;2022-08-14T03:35:16;14.80;;;10.45;;
52854;SDS011;38719;51.418;7.286;2022-08-14T03:37:45;12.85;;;9.43;;
52854;SDS011;38719;51.418;7.286;2022-08-14T03:40:32;11.55;;;9.48;;
52854;SDS011;38719;51.418;7.286;2022-08-14T03:43:02;10.98;;;9.18;;
52854;SDS011;38719;51.418;7.286;2022-08-14T03:45:31;10.73;;;8.63;;
52854;SDS011;38719;51.418;7.286;2022-08-14T03:48:01;11.25;;;8.43;;
52854;SDS011;38719;51.418;7.286;2022-08-14T03:50:36;11.77;;;9.63;;
52854;SDS011;38719;51.418;7.286;2022-08-14T03:53:04;12.98;;;9.60;;
52854;SDS011;38719;51.418;7.286;2022-08-14T03:55:32;13.07;;;9.52;;
52854;SDS011;38719;51.418;7.286;2022-08-14T03:58:04;16.58;;;10.20;;
52854;SDS011;38719;51.418;7.286;2022-08-14T04:00:32;10.90;;;9.35;;
52854;SDS011;38719;51.418;7.286;2022-08-14T04:03:10;11.95;;;9.43;;
52854;SDS011;38719;51.418;7.286;2022-08-14T04:05:49;10.65;;;9.05;;
52854;SDS011;38719;51.418;7.286;2022-08-14T04:08:17;10.45;;;9.35;;
52854;SDS011;38719;51.418;7.286;2022-08-14T04:10:56;13.07;;;8.70;;
52854;SDS011;38719;51.418;7.286;2022-08-14T04:13:28;13.07;;;9.25;;
52854;SDS011;38719;51.418;7.286;2022-08-14T04:15:59;13.20;;;9.18;;
52854;SDS011;38719;51.418;7.286;2022-08-14T04:18:30;14.73;;;9.60;;
52854;SDS011;38719;51.418;7.286;2022-08-14T04:20:59;12.15;;;9.68;;
52854;SDS011;38719;51.418;7.286;2022-08-14T04:23:29;11.38;;;8.98;;
52854;SDS011;38719;51.418;7.286;2022-08-14T04:25:59;14.32;;;9.57;;
52854;SDS011;38719;51.418;7.286;2022-08-14T04:28:29;14.32;;;9.50;;
52854;SDS011;38719;51.418;7.286;2022-08-14T04:31:18;12.40;;;9.10;;
52854;SDS011;38719;51.418;7.286;2022-08-14T04:34:07;11.05;;;9.52;;
52854;SDS011;38719;51.418;7.286;2022-08-14T04:36:42;12.15;;;9.40;;
52854;SDS011;38719;51.418;7.286;2022-08-14T04:39:24;10.52;;;8.68;;
52854;SDS011;38719;51.418;7.286;2022-08-14T04:42:12;11.25;;;9.23;;
52854;SDS011;38719;51.418;7.286;2022-08-14T04:44:58;15.80;;;9.20;;
52854;SDS011;38719;51.418;7.286;2022-08-14T04:47:26;11.30;;;8.93;;
52854;SDS011;38719;51.418;7.286;2022-08-14T04:50:18;17.98;;;9.63;;
52854;SDS011;38719;51.418;7.286;2022-08-14T04:53:06;11.55;;;9.48;;
52854;SDS011;38719;51.418;7.286;2022-08-14T04:55:36;13.52;;;8.40;;
52854;SDS011;38719;51.418;7.286;2022-08-14T04:58:03;11.13;;;8.63;;
52854;SDS011;38719;51.418;7.286;2022-08-14T05:00:33;15.82;;;9.07;;
52854;SDS011;38719;51.418;7.286;2022-08-14T05:03:00;13.90;;;8.88;;
52854;SDS011;38719;51.418;7.286;2022-08-14T05:05:32;13.68;;;9.80;;
52854;SDS011;38719;51.418;7.286;2022-08-14T05:08:04;13.02;;;10.10;;
52854;SDS011;38719;51.418;7.286;2022-08-14T05:10:57;12.88;;;9.27;;
52854;SDS011;38719;51.418;7.286;2022-08-14T05:13:27;13.00;;;9.23;;
52854;SDS011;38719;51.418;7.286;2022-08-14T05:16:17;13.07;;;9.27;;
52854;SDS011;38719;51.418;7.286;2022-08-14T05:18:44;11.70;;;9.13;;
52854;SDS011;38719;51.418;7.286;2022-08-14T05:21:34;12.63;;;9.50;;
52854;SDS011;38719;51.418;7.286;2022-08-14T05:24:22;13.90;;;10.02;;
52854;SDS011;38719;51.418;7.286;2022-08-14T05:26:50;12.30;;;10.43;;
52854;SDS011;38719;51.418;7.286;2022-08-14T05:29:18;12.68;;;11.27;;
52854;SDS011;38719;51.418;7.286;2022-08-14T05:31:48;14.55;;;11.15;;
52854;SDS011;38719;51.418;7.286;2022-08-14T05:34:21;18.73;;;11.75;;
52854;SDS011;38719;51.418;7.286;2022-08-14T05:36:53;14.63;;;9.80;;
52854;SDS011;38719;51.418;7.286;2022-08-14T05:39:28;13.32;;;9.80;;
52854;SDS011;38719;51.418;7.286;2022-08-14T05:41:57;17.75;;;10.43;;
52854;SDS011;38719;51.418;7.286;2022-08-14T05:44:26;17.52;;;10.30;;
52854;SDS011;38719;51.418;7.286;2022-08-14T05:46:57;13.13;;;10.10;;
52854;SDS011;38719;51.418;7.286;2022-08-14T05:49:26;19.10;;;9.77;;
52854;SDS011;38719;51.418;7.286;2022-08-14T05:51:59;13.13;;;10.18;;
52854;SDS011;38719;51.418;7.286;2022-08-14T05:54:28;12.00;;;9.93;;
52854;SDS011;38719;51.418;7.286;2022-08-14T05:57:01;12.40;;;10.07;;
52854;SDS011;38719;51.418;7.286;2022-08-14T05:59:29;15.40;;;10.15;;
52854;SDS011;38719;51.418;7.286;2022-08-14T06:02:06;13.77;;;10.32;;
52854;SDS011;38719;51.418;7.286;2022-08-14T06:04:36;13.98;;;10.85;;
52854;SDS011;38719;51.418;7.286;2022-08-14T06:07:04;13.38;;;10.23;;
52854;SDS011;38719;51.418;7.286;2022-08-14T06:09:32;13.38;;;10.20;;
52854;SDS011;38719;51.418;7.286;2022-08-14T06:12:05;16.52;;;10.48;;
52854;SDS011;38719;51.418;7.286;2022-08-14T06:14:34;14.85;;;9.98;;
52854;SDS011;38719;51.418;7.286;2022-08-14T06:17:02;12.00;;;9.85;;
52854;SDS011;38719;51.418;7.286;2022-08-14T06:19:32;14.75;;;10.38;;
52854;SDS011;38719;51.418;7.286;2022-08-14T06:21:59;13.45;;;9.82;;
52854;SDS011;38719;51.418;7.286;2022-08-14T06:24:28;13.45;;;10.07;;
52854;SDS011;38719;51.418;7.286;2022-08-14T06:27:01;17.45;;;10.77;;
52854;SDS011;38719;51.418;7.286;2022-08-14T06:29:31;14.55;;;9.98;;
52854;SDS011;38719;51.418;7.286;2022-08-14T06:32:00;12.52;;;9.90;;
52854;SDS011;38719;51.418;7.286;2022-08-14T06:34:50;12.10;;;10.27;;
52854;SDS011;38719;51.418;7.286;2022-08-14T06:37:38;12.88;;;10.00;;
52854;SDS011;38719;51.418;7.286;2022-08-14T06:40:08;15.30;;;9.85;;
52854;SDS011;38719;51.418;7.286;2022-08-14T06:42:53;13.55;;;10.43;;
52854;SDS011;38719;51.418;7.286;2022-08-14T06:45:25;12.50;;;9.90;;
52854;SDS011;38719;51.418;7.286;2022-08-14T06:47:53;13.88;;;10.57;;
52854;SDS011;38719;51.418;7.286;2022-08-14T06:50:26;16.23;;;10.07;;
52854;SDS011;38719;51.418;7.286;2022-08-14T06:52:58;14.23;;;10.50;;
52854;SDS011;38719;51.418;7.286;2022-08-14T06:55:26;16.27;;;10.20;;
52854;SDS011;38719;51.418;7.286;2022-08-14T06:57:55;13.95;;;10.43;;
52854;SDS011;38719;51.418;7.286;2022-08-14T07:00:24;14.05;;;10.43;;
52854;SDS011;38719;51.418;7.286;2022-08-14T07:02:57;16.80;;;10.88;;
52854;SDS011;38719;51.418;7.286;2022-08-14T07:05:45;13.75;;;10.07;;
52854;SDS011;38719;51.418;7.286;2022-08-14T07:08:23;18.40;;;10.48;;
52854;SDS011;38719;51.418;7.286;2022-08-14T07:10:57;10.45;;;8.85;;
52854;SDS011;38719;51.418;7.286;2022-08-14T07:13:26;11.63;;;9.73;;
52854;SDS011;38719;51.418;7.286;2022-08-14T07:15:56;10.20;;;9.15;;
52854;SDS011;38719;51.418;7.286;2022-08-14T07:18:26;15.68;;;10.18;;
52854;SDS011;38719;51.418;7.286;2022-08-14T07:20:57;12.52;;;9.35;;
52854;SDS011;38719;51.418;7.286;2022-08-14T07:23:25;11.70;;;9.55;;
52854;SDS011;38719;51.418;7.286;2022-08-14T07:25:57;10.80;;;9.50;;
52854;SDS011;38719;51.418;7.286;2022-08-14T07:28:28;12.23;;;8.95;;
52854;SDS011;38719;51.418;7.286;2022-08-14T07:30:58;14.00;;;9.65;;
52854;SDS011;38719;51.418;7.286;2022-08-14T07:33:31;14.70;;;9.90;;
52854;SDS011;38719;51.418;7.286;2022-08-14T07:36:04;10.77;;;9.18;;
52854;SDS011;38719;51.418;7.286;2022-08-14T07:38:54;11.60;;;9.52;;
52854;SDS011;38719;51.418;7.286;2022-08-14T07:41:22;10.80;;;8.55;;
52854;SDS011;38719;51.418;7.286;2022-08-14T07:43:58;11.35;;;9.13;;
52854;SDS011;38719;51.418;7.286;2022-08-14T07:46:46;10.95;;;8.85;;
52854;SDS011;38719;51.418;7.286;2022-08-14T07:49:15;11.75;;;8.75;;
52854;SDS011;38719;51.418;7.286;2022-08-14T07:51:45;9.20;;;8.20;;
52854;SDS011;38719;51.418;7.286;2022-08-14T07:54:15;13.02;;;8.82;;
52854;SDS011;38719;51.418;7.286;2022-08-14T07:56:55;17.25;;;9.13;;
52854;SDS011;38719;51.418;7.286;2022-08-14T07:59:25;12.38;;;9.20;;
52854;SDS011;38719;51.418;7.286;2022-08-14T08:02:08;14.68;;;8.60;;
52854;SDS011;38719;51.418;7.286;2022-08-14T08:04:46;9.80;;;8.77;;
52854;SDS011;38719;51.418;7.286;2022-08-14T08:07:21;10.98;;;8.43;;
52854;SDS011;38719;51.418;7.286;2022-08-14T08:09:56;11.23;;;8.80;;
52854;SDS011;38719;51.418;7.286;2022-08-14T08:12:27;11.55;;;8.32;;
52854;SDS011;38719;51.418;7.286;2022-08-14T08:14:57;9.63;;;8.57;;
52854;SDS011;38719;51.418;7.286;2022-08-14T08:17:33;11.77;;;8.27;;
52854;SDS011;38719;51.418;7.286;2022-08-14T08:20:11;12.68;;;7.75;;
52854;SDS011;38719;51.418;7.286;2022-08-14T08:22:46;11.00;;;8.43;;
52854;SDS011;38719;51.418;7.286;2022-08-14T08:25:21;9.88;;;8.00;;
52854;SDS011;38719;51.418;7.286;2022-08-14T08:27:53;10.63;;;8.27;;
52854;SDS011;38719;51.418;7.286;2022-08-14T08:30:21;9.60;;;8.43;;
52854;SDS011;38719;51.418;7.286;2022-08-14T08:32:50;9.40;;;7.63;;
52854;SDS011;38719;51.418;7.286;2022-08-14T08:35:18;12.00;;;7.82;;
52854;SDS011;38719;51.418;7.286;2022-08-14T08:37:50;12.35;;;8.23;;
52854;SDS011;38719;51.418;7.286;2022-08-14T08:40:28;10.95;;;8.43;;
52854;SDS011;38719;51.418;7.286;2022-08-14T08:43:08;9.70;;;8.18;;
52854;SDS011;38719;51.418;7.286;2022-08-14T08:45:42;11.35;;;7.93;;
52854;SDS011;38719;51.418;7.286;2022-08-14T08:48:11;9.40;;;7.68;;
52854;SDS011;38719;51.418;7.286;2022-08-14T08:50:56;7.90;;;7.10;;
52854;SDS011;38719;51.418;7.286;2022-08-14T08:53:30;7.85;;;7.05;;
52854;SDS011;38719;51.418;7.286;2022-08-14T08:55:59;8.18;;;7.30;;
52854;SDS011;38719;51.418;7.286;2022-08-14T08:58:27;10.93;;;8.23;;
52854;SDS011;38719;51.418;7.286;2022-08-14T09:00:56;9.57;;;7.60;;
52854;SDS011;38719;51.418;7.286;2022-08-14T09:03:26;9.88;;;7.88;;
52854;SDS011;38719;51.418;7.286;2022-08-14T09:05:56;12.20;;;7.80;;
52854;SDS011;38719;51.418;7.286;2022-08-14T09:08:27;18.73;;;7.72;;
52854;SDS011;38719;51.418;7.286;2022-08-14T09:10:59;14.10;;;7.82;;
52854;SDS011;38719;51.418;7.286;2022-08-14T09:13:47;15.73;;;7.78;;
52854;SDS011;38719;51.418;7.286;2022-08-14T09:16:17;8.45;;;7.20;;
52854;SDS011;38719;51.418;7.286;2022-08-14T09:18:48;10.55;;;7.60;;
52854;SDS011;38719;51.418;7.286;2022-08-14T09:21:18;10.77;;;8.25;;
52854;SDS011;38719;51.418;7.286;2022-08-14T09:23:51;10.15;;;8.20;;
52854;SDS011;38719;51.418;7.286;2022-08-14T09:26:41;10.30;;;7.85;;
52854;SDS011;38719;51.418;7.286;2022-08-14T09:29:15;10.18;;;7.18;;
52854;SDS011;38719;51.418;7.286;2022-08-14T09:31:49;11.32;;;7.70;;
52854;SDS011;38719;51.418;7.286;2022-08-14T09:34:28;10.38;;;7.05;;
52854;SDS011;38719;51.418;7.286;2022-08-14T09:37:27;9.23;;;6.80;;
52854;SDS011;38719;51.418;7.286;2022-08-14T09:40:04;8.30;;;6.25;;
52854;SDS011;38719;51.418;7.286;2022-08-14T09:42:48;8.23;;;6.75;;
52854;SDS011;38719;51.418;7.286;2022-08-14T09:45:29;8.85;;;6.50;;
52854;SDS011;38719;51.418;7.286;2022-08-14T09:48:18;7.03;;;6.32;;
52854;SDS011;38719;51.418;7.286;2022-08-14T09:50:56;9.38;;;6.53;;
52854;SDS011;38719;51.418;7.286;2022-08-14T09:53:34;10.07;;;6.75;;
52854;SDS011;38719;51.418;7.286;2022-08-14T09:56:28;8.38;;;7.22;;
52854;SDS011;38719;51.418;7.286;2022-08-14T09:59:08;8.93;;;7.22;;
52854;SDS011;38719;51.418;7.286;2022-08-14T10:01:40;11.15;;;7.65;;
52854;SDS011;38719;51.418;7.286;2022-08-14T10:04:19;7.78;;;6.88;;
52854;SDS011;38719;51.418;7.286;2022-08-14T10:07:00;23.25;;;7.97;;
52854;SDS011;38719;51.418;7.286;2022-08-14T10:09:28;16.80;;;8.27;;
52854;SDS011;38719;51.418;7.286;2022-08-14T10:12:01;113.93;;;10.05;;
52854;SDS011;38719;51.418;7.286;2022-08-14T10:14:44;10.70;;;6.43;;
52854;SDS011;38719;51.418;7.286;2022-08-14T10:17:20;7.60;;;6.57;;
52854;SDS011;38719;51.418;7.286;2022-08-14T10:19:58;11.20;;;6.97;;
52854;SDS011;38719;51.418;7.286;2022-08-14T10:22:25;8.30;;;6.70;;
52854;SDS011;38719;51.418;7.286;2022-08-14T10:25:15;8.70;;;6.45;;
52854;SDS011;38719;51.418;7.286;2022-08-14T10:27:56;9.52;;;7.00;;
52854;SDS011;38719;51.418;7.286;2022-08-14T10:30:31;8.65;;;6.68;;
52854;SDS011;38719;51.418;7.286;2022-08-14T10:33:00;10.05;;;6.80;;
52854;SDS011;38719;51.418;7.286;2022-08-14T10:35:39;7.28;;;6.43;;
52854;SDS011;38719;51.418;7.286;2022-08-14T10:38:13;9.00;;;6.35;;
52854;SDS011;38719;51.418;7.286;2022-08-14T10:40:43;6.28;;;5.65;;
52854;SDS011;38719;51.418;7.286;2022-08-14T10:43:25;10.30;;;6.47;;
52854;SDS011;38719;51.418;7.286;2022-08-14T10:45:57;7.55;;;6.68;;
52854;SDS011;38719;51.418;7.286;2022-08-14T10:48:56;7.63;;;6.30;;
52854;SDS011;38719;51.418;7.286;2022-08-14T10:51:30;7.00;;;6.13;;
52854;SDS011;38719;51.418;7.286;2022-08-14T10:54:07;7.10;;;6.40;;
52854;SDS011;38719;51.418;7.286;2022-08-14T10:56:56;8.25;;;6.05;;
52854;SDS011;38719;51.418;7.286;2022-08-14T10:59:26;7.80;;;6.20;;
52854;SDS011;38719;51.418;7.286;2022-08-14T11:02:15;7.88;;;6.22;;
52854;SDS011;38719;51.418;7.286;2022-08-14T11:05:08;7.03;;;6.25;;
52854;SDS011;38719;51.418;7.286;2022-08-14T11:07:40;8.05;;;6.18;;
52854;SDS011;38719;51.418;7.286;2022-08-14T11:10:10;7.13;;;5.72;;
52854;SDS011;38719;51.418;7.286;2022-08-14T11:12:43;7.10;;;6.35;;
52854;SDS011;38719;51.418;7.286;2022-08-14T11:15:15;6.32;;;5.72;;
52854;SDS011;38719;51.418;7.286;2022-08-14T11:17:48;6.53;;;5.88;;
52854;SDS011;38719;51.418;7.286;2022-08-14T11:20:18;6.78;;;6.10;;
52854;SDS011;38719;51.418;7.286;2022-08-14T11:22:50;9.10;;;6.10;;
52854;SDS011;38719;51.418;7.286;2022-08-14T11:25:26;7.65;;;6.43;;
52854;SDS011;38719;51.418;7.286;2022-08-14T11:28:09;7.32;;;6.05;;
52854;SDS011;38719;51.418;7.286;2022-08-14T11:30:46;8.60;;;6.38;;
52854;SDS011;38719;51.418;7.286;2022-08-14T11:33:20;7.30;;;5.95;;
52854;SDS011;38719;51.418;7.286;2022-08-14T11:35:49;9.85;;;6.40;;
52854;SDS011;38719;51.418;7.286;2022-08-14T11:38:24;7.00;;;5.93;;
52854;SDS011;38719;51.418;7.286;2022-08-14T11:40:54;8.38;;;6.60;;
52854;SDS011;38719;51.418;7.286;2022-08-14T11:43:25;6.78;;;5.82;;
52854;SDS011;38719;51.418;7.286;2022-08-14T11:45:57;7.78;;;6.30;;
52854;SDS011;38719;51.418;7.286;2022-08-14T11:48:31;9.32;;;5.93;;
52854;SDS011;38719;51.418;7.286;2022-08-14T11:51:19;9.02;;;5.75;;
52854;SDS011;38719;51.418;7.286;2022-08-14T11:53:56;6.32;;;5.72;;
52854;SDS011;38719;51.418;7.286;2022-08-14T11:56:32;7.70;;;5.85;;
52854;SDS011;38719;51.418;7.286;2022-08-14T11:59:01;6.40;;;5.70;;
52854;SDS011;38719;51.418;7.286;2022-08-14T12:01:31;6.35;;;5.75;;
52854;SDS011;38719;51.418;7.286;2022-08-14T12:04:06;6.35;;;5.75;;
52854;SDS011;38719;51.418;7.286;2022-08-14T12:06:56;6.43;;;5.80;;
52854;SDS011;38719;51.418;7.286;2022-08-14T12:09:27;8.27;;;5.75;;
52854;SDS011;38719;51.418;7.286;2022-08-14T12:11:55;9.35;;;6.15;;
52854;SDS011;38719;51.418;7.286;2022-08-14T12:14:23;6.97;;;5.88;;
52854;SDS011;38719;51.418;7.286;2022-08-14T12:17:03;7.68;;;6.22;;
52854;SDS011;38719;51.418;7.286;2022-08-14T12:19:45;7.10;;;6.07;;
52854;SDS011;38719;51.418;7.286;2022-08-14T12:22:19;6.40;;;5.63;;
52854;SDS011;38719;51.418;7.286;2022-08-14T12:24:57;8.88;;;6.50;;
52854;SDS011;38719;51.418;7.286;2022-08-14T12:27:33;8.88;;;6.40;;
52854;SDS011;38719;51.418;7.286;2022-08-14T12:30:07;7.20;;;6.38;;
52854;SDS011;38719;51.418;7.286;2022-08-14T12:32:38;7.20;;;6.40;;
52854;SDS011;38719;51.418;7.286;2022-08-14T12:35:09;9.50;;;6.75;;
52854;SDS011;38719;51.418;7.286;2022-08-14T12:37:37;8.07;;;6.10;;
52854;SDS011;38719;51.418;7.286;2022-08-14T12:40:12;7.40;;;6.70;;
52854;SDS011;38719;51.418;7.286;2022-08-14T12:42:46;6.93;;;6.22;;
52854;SDS011;38719;51.418;7.286;2022-08-14T12:45:27;6.93;;;5.95;;
52854;SDS011;38719;51.418;7.286;2022-08-14T12:48:00;5.93;;;5.43;;
52854;SDS011;38719;51.418;7.286;2022-08-14T12:50:48;8.35;;;5.90;;
52854;SDS011;38719;51.418;7.286;2022-08-14T12:53:17;6.68;;;5.30;;
52854;SDS011;38719;51.418;7.286;2022-08-14T12:55:56;7.88;;;5.05;;
52854;SDS011;38719;51.418;7.286;2022-08-14T12:58:46;6.88;;;5.50;;
52854;SDS011;38719;51.418;7.286;2022-08-14T13:01:18;9.18;;;5.43;;
52854;SDS011;38719;51.418;7.286;2022-08-14T13:03:48;5.90;;;5.30;;
52854;SDS011;38719;51.418;7.286;2022-08-14T13:06:18;9.65;;;5.45;;
52854;SDS011;38719;51.418;7.286;2022-08-14T13:08:49;5.88;;;5.07;;
52854;SDS011;38719;51.418;7.286;2022-08-14T13:11:25;6.32;;;5.10;;
52854;SDS011;38719;51.418;7.286;2022-08-14T13:14:06;5.63;;;5.13;;
52854;SDS011;38719;51.418;7.286;2022-08-14T13:16:43;5.55;;;5.05;;
52854;SDS011;38719;51.418;7.286;2022-08-14T13:19:17;6.00;;;4.97;;
52854;SDS011;38719;51.418;7.286;2022-08-14T13:21:50;6.25;;;4.90;;
52854;SDS011;38719;51.418;7.286;2022-08-14T13:24:31;5.55;;;4.95;;
52854;SDS011;38719;51.418;7.286;2022-08-14T13:27:00;5.53;;;4.97;;
52854;SDS011;38719;51.418;7.286;2022-08-14T13:29:31;8.25;;;5.65;;
52854;SDS011;38719;51.418;7.286;2022-08-14T13:32:05;5.80;;;5.30;;
52854;SDS011;38719;51.418;7.286;2022-08-14T13:34:35;6.50;;;5.60;;
52854;SDS011;38719;51.418;7.286;2022-08-14T13:37:05;6.40;;;5.35;;
52854;SDS011;38719;51.418;7.286;2022-08-14T13:39:33;5.90;;;5.10;;
52854;SDS011;38719;51.418;7.286;2022-08-14T13:42:03;6.32;;;5.13;;
52854;SDS011;38719;51.418;7.286;2022-08-14T13:44:36;8.50;;;5.80;;
52854;SDS011;38719;51.418;7.286;2022-08-14T13:47:08;6.10;;;5.50;;
52854;SDS011;38719;51.418;7.286;2022-08-14T13:49:37;7.15;;;5.32;;
52854;SDS011;38719;51.418;7.286;2022-08-14T13:52:23;5.93;;;5.32;;
52854;SDS011;38719;51.418;7.286;2022-08-14T13:55:12;6.63;;;5.38;;
52854;SDS011;38719;51.418;7.286;2022-08-14T13:57:44;6.00;;;5.47;;
52854;SDS011;38719;51.418;7.286;2022-08-14T14:00:29;7.03;;;5.20;;
52854;SDS011;38719;51.418;7.286;2022-08-14T14:03:17;6.30;;;4.97;;
52854;SDS011;38719;51.418;7.286;2022-08-14T14:05:49;5.47;;;4.97;;
52854;SDS011;38719;51.418;7.286;2022-08-14T14:08:20;6.80;;;5.13;;
52854;SDS011;38719;51.418;7.286;2022-08-14T14:11:10;6.68;;;4.85;;
52854;SDS011;38719;51.418;7.286;2022-08-14T14:13:39;5.88;;;5.07;;
52854;SDS011;38719;51.418;7.286;2022-08-14T14:16:11;6.03;;;5.10;;
52854;SDS011;38719;51.418;7.286;2022-08-14T14:18:51;6.38;;;4.88;;
52854;SDS011;38719;51.418;7.286;2022-08-14T14:21:23;5.95;;;4.80;;
52854;SDS011;38719;51.418;7.286;2022-08-14T14:23:54;6.50;;;4.82;;
52854;SDS011;38719;51.418;7.286;2022-08-14T14:26:24;5.22;;;4.70;;
52854;SDS011;38719;51.418;7.286;2022-08-14T14:28:53;5.13;;;4.63;;
52854;SDS011;38719;51.418;7.286;2022-08-14T14:31:23;6.13;;;5.00;;
52854;SDS011;38719;51.418;7.286;2022-08-14T14:33:56;4.57;;;4.10;;
52854;SDS011;38719;51.418;7.286;2022-08-14T14:36:34;5.20;;;4.70;;
52854;SDS011;38719;51.418;7.286;2022-08-14T14:39:06;6.78;;;4.55;;
52854;SDS011;38719;51.418;7.286;2022-08-14T14:41:36;5.20;;;4.60;;
52854;SDS011;38719;51.418;7.286;2022-08-14T14:44:09;4.97;;;4.47;;
52854;SDS011;38719;51.418;7.286;2022-08-14T14:46:42;5.32;;;4.82;;
52854;SDS011;38719;51.418;7.286;2022-08-14T14:49:17;5.05;;;4.55;;
52854;SDS011;38719;51.418;7.286;2022-08-14T14:51:48;8.75;;;4.85;;
52854;SDS011;38719;51.418;7.286;2022-08-14T14:54:18;5.25;;;4.75;;
52854;SDS011;38719;51.418;7.286;2022-08-14T14:56:57;6.22;;;5.63;;
52854;SDS011;38719;51.418;7.286;2022-08-14T14:59:27;5.75;;;5.20;;
52854;SDS011;38719;51.418;7.286;2022-08-14T15:01:59;7.85;;;5.30;;
52854;SDS011;38719;51.418;7.286;2022-08-14T15:04:33;6.78;;;5.20;;
52854;SDS011;38719;51.418;7.286;2022-08-14T15:07:05;6.10;;;5.00;;
52854;SDS011;38719;51.418;7.286;2022-08-14T15:09:33;6.57;;;5.00;;
52854;SDS011;38719;51.418;7.286;2022-08-14T15:12:02;5.70;;;5.10;;
52854;SDS011;38719;51.418;7.286;2022-08-14T15:14:41;5.68;;;5.07;;
52854;SDS011;38719;51.418;7.286;2022-08-14T15:17:22;8.02;;;5.53;;
52854;SDS011;38719;51.418;7.286;2022-08-14T15:20:00;7.78;;;4.93;;
52854;SDS011;38719;51.418;7.286;2022-08-14T15:22:31;5.70;;;5.10;;
52854;SDS011;38719;51.418;7.286;2022-08-14T15:25:00;8.95;;;5.28;;
52854;SDS011;38719;51.418;7.286;2022-08-14T15:27:28;6.20;;;5.13;;